Terminal Aerodrome Forecast
Issued by NWS Shreveport, LA

Home | Current Version | Previous Version | Text Only | Print | Product List | Glossary On
Versions: 1 2 3 4 5 6 7 8 9 10 11 12 13 14 15
000
FTUS44 KSHV 301700
TAFMLU
TAF
KMLU 301721Z 3018/0118 VRB03KT P6SM SCT045 SCT100 SCT250
     FM010000 00000KT P6SM SCT060 SCT120 SCT250
      TEMPO 0110/0114 3SM BR SCT015
     FM011400 15004KT P6SM BKN015
     FM011600 17006KT P6SM BKN030=

USA.gov is the U.S. government's official web portal to all federal, state and local government web resources and services.